sensor_id;sensor_type;location;lat;lon;timestamp;temperature;humidity
23723;DHT22;12042;52.136;5.584;2023-02-26T07:21:37;0.40;99.90
23723;DHT22;12042;52.136;5.584;2023-02-26T07:24:03;0.40;99.90
23723;DHT22;12042;52.136;5.584;2023-02-26T07:26:29;0.50;99.90
23723;DHT22;12042;52.136;5.584;2023-02-26T07:28:55;0.60;99.90
23723;DHT22;12042;52.136;5.584;2023-02-26T07:31:20;0.60;99.90
23723;DHT22;12042;52.136;5.584;2023-02-26T07:33:46;0.70;99.90
23723;DHT22;12042;52.136;5.584;2023-02-26T07:36:12;0.80;99.90
23723;DHT22;12042;52.136;5.584;2023-02-26T07:38:37;0.90;99.90
23723;DHT22;12042;52.136;5.584;2023-02-26T07:41:03;1.00;99.90
23723;DHT22;12042;52.136;5.584;2023-02-26T07:43:29;1.10;99.90
23723;DHT22;12042;52.136;5.584;2023-02-26T07:45:54;1.10;99.90
23723;DHT22;12042;52.136;5.584;2023-02-26T07:48:20;1.30;99.90
23723;DHT22;12042;52.136;5.584;2023-02-26T07:50:46;1.40;99.90
23723;DHT22;12042;52.136;5.584;2023-02-26T07:53:11;1.40;99.90
23723;DHT22;12042;52.136;5.584;2023-02-26T07:55:37;1.50;99.90
23723;DHT22;12042;52.136;5.584;2023-02-26T07:58:03;1.60;99.90
23723;DHT22;12042;52.136;5.584;2023-02-26T08:00:28;1.60;99.90
23723;DHT22;12042;52.136;5.584;2023-02-26T08:02:54;1.70;99.90
23723;DHT22;12042;52.136;5.584;2023-02-26T08:05:19;1.80;99.90
23723;DHT22;12042;52.136;5.584;2023-02-26T08:07:45;1.90;99.90
23723;DHT22;12042;52.136;5.584;2023-02-26T08:10:11;2.10;99.90
23723;DHT22;12042;52.136;5.584;2023-02-26T08:12:37;2.10;99.90
23723;DHT22;12042;52.136;5.584;2023-02-26T08:15:03;2.20;99.90
23723;DHT22;12042;52.136;5.584;2023-02-26T08:17:29;2.20;99.90
23723;DHT22;12042;52.136;5.584;2023-02-26T08:19:55;2.30;99.90
23723;DHT22;12042;52.136;5.584;2023-02-26T08:22:20;2.40;99.90
23723;DHT22;12042;52.136;5.584;2023-02-26T08:24:48;2.50;99.90
23723;DHT22;12042;52.136;5.584;2023-02-26T08:27:13;2.50;99.90
23723;DHT22;12042;52.136;5.584;2023-02-26T08:29:39;2.60;99.90
23723;DHT22;12042;52.136;5.584;2023-02-26T08:32:05;2.60;99.90
23723;DHT22;12042;52.136;5.584;2023-02-26T08:34:30;2.60;99.90
23723;DHT22;12042;52.136;5.584;2023-02-26T08:36:56;2.70;99.90
23723;DHT22;12042;52.136;5.584;2023-02-26T08:39:21;2.70;99.90
23723;DHT22;12042;52.136;5.584;2023-02-26T08:41:47;2.70;99.90
23723;DHT22;12042;52.136;5.584;2023-02-26T08:44:13;2.80;99.90
23723;DHT22;12042;52.136;5.584;2023-02-26T08:46:38;2.80;99.90
23723;DHT22;12042;52.136;5.584;2023-02-26T08:49:04;2.80;99.90
23723;DHT22;12042;52.136;5.584;2023-02-26T08:51:29;2.80;99.90
23723;DHT22;12042;52.136;5.584;2023-02-26T08:53:55;2.80;99.90
23723;DHT22;12042;52.136;5.584;2023-02-26T08:56:21;2.90;99.90
23723;DHT22;12042;52.136;5.584;2023-02-26T08:58:47;2.80;99.90
23723;DHT22;12042;52.136;5.584;2023-02-26T09:01:12;2.90;99.90
23723;DHT22;12042;52.136;5.584;2023-02-26T09:03:38;2.90;99.90
23723;DHT22;12042;52.136;5.584;2023-02-26T09:06:04;2.80;99.90
23723;DHT22;12042;52.136;5.584;2023-02-26T09:08:30;2.90;99.90
23723;DHT22;12042;52.136;5.584;2023-02-26T09:11:00;3.00;99.90
23723;DHT22;12042;52.136;5.584;2023-02-26T09:13:26;3.10;99.90
23723;DHT22;12042;52.136;5.584;2023-02-26T09:15:52;3.20;99.90
23723;DHT22;12042;52.136;5.584;2023-02-26T09:18:18;3.30;99.90
23723;DHT22;12042;52.136;5.584;2023-02-26T09:20:44;3.30;99.90
23723;DHT22;12042;52.136;5.584;2023-02-26T09:23:10;3.30;99.90
23723;DHT22;12042;52.136;5.584;2023-02-26T09:25:36;3.30;99.90
23723;DHT22;12042;52.136;5.584;2023-02-26T09:28:01;3.30;99.90
23723;DHT22;12042;52.136;5.584;2023-02-26T09:30:27;3.50;99.90
23723;DHT22;12042;52.136;5.584;2023-02-26T09:32:53;3.60;99.90
23723;DHT22;12042;52.136;5.584;2023-02-26T09:35:18;3.70;99.90
23723;DHT22;12042;52.136;5.584;2023-02-26T09:37:44;3.70;99.90
23723;DHT22;12042;52.136;5.584;2023-02-26T09:40:22;3.70;99.90
23723;DHT22;12042;52.136;5.584;2023-02-26T09:45:29;3.90;99.90
23723;DHT22;12042;52.136;5.584;2023-02-26T09:47:56;4.00;99.90
23723;DHT22;12042;52.136;5.584;2023-02-26T09:50:25;3.80;99.90
23723;DHT22;12042;52.136;5.584;2023-02-26T09:55:28;3.80;99.90
23723;DHT22;12042;52.136;5.584;2023-02-26T09:57:58;3.90;99.90
23723;DHT22;12042;52.136;5.584;2023-02-26T10:03:15;4.00;99.90
23723;DHT22;12042;52.136;5.584;2023-02-26T10:06:14;4.10;99.90
23723;DHT22;12042;52.136;5.584;2023-02-26T10:08:59;4.20;99.90
23723;DHT22;12042;52.136;5.584;2023-02-26T10:14:32;4.20;99.90
23723;DHT22;12042;52.136;5.584;2023-02-26T10:17:04;4.30;99.90
23723;DHT22;12042;52.136;5.584;2023-02-26T10:19:37;4.40;99.90
23723;DHT22;12042;52.136;5.584;2023-02-26T10:22:35;4.40;99.90
23723;DHT22;12042;52.136;5.584;2023-02-26T10:25:12;4.60;99.90
23723;DHT22;12042;52.136;5.584;2023-02-26T10:30:43;4.70;99.90
23723;DHT22;12042;52.136;5.584;2023-02-26T10:33:33;4.70;99.90
23723;DHT22;12042;52.136;5.584;2023-02-26T10:36:22;4.60;99.90
23723;DHT22;12042;52.136;5.584;2023-02-26T10:38:53;4.50;99.90
23723;DHT22;12042;52.136;5.584;2023-02-26T10:41:24;4.50;99.90
23723;DHT22;12042;52.136;5.584;2023-02-26T10:44:08;4.50;99.90
23723;DHT22;12042;52.136;5.584;2023-02-26T10:46:44;4.70;99.90
23723;DHT22;12042;52.136;5.584;2023-02-26T10:52:14;5.10;99.90
23723;DHT22;12042;52.136;5.584;2023-02-26T10:57:22;5.50;99.90
23723;DHT22;12042;52.136;5.584;2023-02-26T10:59:48;5.60;99.90
23723;DHT22;12042;52.136;5.584;2023-02-26T11:02:41;5.60;99.90
23723;DHT22;12042;52.136;5.584;2023-02-26T11:05:27;5.70;99.90
23723;DHT22;12042;52.136;5.584;2023-02-26T11:07:56;5.80;99.90
23723;DHT22;12042;52.136;5.584;2023-02-26T11:10:26;5.90;99.90
23723;DHT22;12042;52.136;5.584;2023-02-26T11:12:52;6.10;99.90
23723;DHT22;12042;52.136;5.584;2023-02-26T11:15:22;5.80;99.90
23723;DHT22;12042;52.136;5.584;2023-02-26T11:17:53;5.80;99.90
23723;DHT22;12042;52.136;5.584;2023-02-26T11:20:41;5.70;99.90
23723;DHT22;12042;52.136;5.584;2023-02-26T11:23:17;5.90;99.90
23723;DHT22;12042;52.136;5.584;2023-02-26T11:25:45;6.00;99.90
23723;DHT22;12042;52.136;5.584;2023-02-26T11:28:24;5.90;99.90
23723;DHT22;12042;52.136;5.584;2023-02-26T11:30:50;5.70;99.90
23723;DHT22;12042;52.136;5.584;2023-02-26T11:33:26;5.60;99.90
23723;DHT22;12042;52.136;5.584;2023-02-26T11:35:56;5.70;99.90
23723;DHT22;12042;52.136;5.584;2023-02-26T11:38:25;5.60;99.90
23723;DHT22;12042;52.136;5.584;2023-02-26T11:40:54;5.70;99.90
23723;DHT22;12042;52.136;5.584;2023-02-26T11:43:22;5.80;99.90
23723;DHT22;12042;52.136;5.584;2023-02-26T11:45:53;5.80;99.90
23723;DHT22;12042;52.136;5.584;2023-02-26T11:48:25;6.00;99.90
23723;DHT22;12042;52.136;5.584;2023-02-26T11:51:03;5.90;99.90
23723;DHT22;12042;52.136;5.584;2023-02-26T11:53:50;6.00;99.90
23723;DHT22;12042;52.136;5.584;2023-02-26T11:56:31;5.90;99.90
23723;DHT22;12042;52.136;5.584;2023-02-26T11:59:07;6.00;99.90
23723;DHT22;12042;52.136;5.584;2023-02-26T12:01:40;5.90;99.90
23723;DHT22;12042;52.136;5.584;2023-02-26T12:04:11;6.00;99.90
23723;DHT22;12042;52.136;5.584;2023-02-26T12:06:37;6.30;99.90
23723;DHT22;12042;52.136;5.584;2023-02-26T12:09:03;6.50;99.90
23723;DHT22;12042;52.136;5.584;2023-02-26T12:12:06;6.50;99.90
23723;DHT22;12042;52.136;5.584;2023-02-26T12:15:15;6.50;99.90
23723;DHT22;12042;52.136;5.584;2023-02-26T12:20:28;6.80;99.90
23723;DHT22;12042;52.136;5.584;2023-02-26T12:23:03;6.80;99.90
23723;DHT22;12042;52.136;5.584;2023-02-26T12:28:22;6.50;99.90
23723;DHT22;12042;52.136;5.584;2023-02-26T12:39:47;7.20;99.90
23723;DHT22;12042;52.136;5.584;2023-02-26T12:45:10;6.80;99.90
23723;DHT22;12042;52.136;5.584;2023-02-26T12:50:20;6.40;99.90
23723;DHT22;12042;52.136;5.584;2023-02-26T12:55:59;6.50;99.90
23723;DHT22;12042;52.136;5.584;2023-02-26T13:07:25;6.70;99.90
23723;DHT22;12042;52.136;5.584;2023-02-26T13:10:19;6.80;99.90
23723;DHT22;12042;52.136;5.584;2023-02-26T13:21:28;6.80;99.90
23723;DHT22;12042;52.136;5.584;2023-02-26T13:24:10;7.00;99.90
23723;DHT22;12042;52.136;5.584;2023-02-26T13:26:37;7.10;99.90
23723;DHT22;12042;52.136;5.584;2023-02-26T13:29:31;7.20;99.90
23723;DHT22;12042;52.136;5.584;2023-02-26T13:32:17;7.20;99.90
23723;DHT22;12042;52.136;5.584;2023-02-26T13:34:57;7.20;99.90
23723;DHT22;12042;52.136;5.584;2023-02-26T13:37:37;7.40;99.90
23723;DHT22;12042;52.136;5.584;2023-02-26T13:43:04;7.60;99.90
23723;DHT22;12042;52.136;5.584;2023-02-26T13:46:01;7.60;99.90
23723;DHT22;12042;52.136;5.584;2023-02-26T13:48:44;7.70;99.90
23723;DHT22;12042;52.136;5.584;2023-02-26T13:51:41;7.40;99.90
23723;DHT22;12042;52.136;5.584;2023-02-26T13:59:27;8.00;99.90
23723;DHT22;12042;52.136;5.584;2023-02-26T14:02:01;8.20;99.90
23723;DHT22;12042;52.136;5.584;2023-02-26T14:04:47;8.40;99.90
23723;DHT22;12042;52.136;5.584;2023-02-26T14:07:15;8.40;99.90
23723;DHT22;12042;52.136;5.584;2023-02-26T14:09:47;8.30;99.90
23723;DHT22;12042;52.136;5.584;2023-02-26T14:12:35;8.00;99.90
23723;DHT22;12042;52.136;5.584;2023-02-26T14:15:18;8.00;99.90
23723;DHT22;12042;52.136;5.584;2023-02-26T14:18:18;8.20;99.90
23723;DHT22;12042;52.136;5.584;2023-02-26T14:20:34;8.00;99.90
23723;DHT22;12042;52.136;5.584;2023-02-26T14:23:10;8.00;99.90
23723;DHT22;12042;52.136;5.584;2023-02-26T14:25:48;7.80;99.90
23723;DHT22;12042;52.136;5.584;2023-02-26T14:31:20;8.10;99.90
23723;DHT22;12042;52.136;5.584;2023-02-26T14:34:07;8.20;99.90
23723;DHT22;12042;52.136;5.584;2023-02-26T14:36:45;8.10;99.90
23723;DHT22;12042;52.136;5.584;2023-02-26T14:42:35;7.60;99.90
23723;DHT22;12042;52.136;5.584;2023-02-26T14:47:44;7.70;99.90
23723;DHT22;12042;52.136;5.584;2023-02-26T14:50:15;7.60;99.90
23723;DHT22;12042;52.136;5.584;2023-02-26T14:55:37;7.70;99.90
23723;DHT22;12042;52.136;5.584;2023-02-26T14:58:12;7.70;99.90
23723;DHT22;12042;52.136;5.584;2023-02-26T15:03:41;7.60;99.90
23723;DHT22;12042;52.136;5.584;2023-02-26T15:09:18;7.30;99.90
23723;DHT22;12042;52.136;5.584;2023-02-26T15:11:56;7.20;99.90
23723;DHT22;12042;52.136;5.584;2023-02-26T15:20:17;7.20;99.90
23723;DHT22;12042;52.136;5.584;2023-02-26T15:25:38;7.00;99.90
23723;DHT22;12042;52.136;5.584;2023-02-26T15:28:09;7.00;99.90
23723;DHT22;12042;52.136;5.584;2023-02-26T15:30:36;6.90;99.90
23723;DHT22;12042;52.136;5.584;2023-02-26T15:33:06;6.90;99.90
23723;DHT22;12042;52.136;5.584;2023-02-26T15:35:36;7.00;99.90
23723;DHT22;12042;52.136;5.584;2023-02-26T15:38:02;7.10;99.90
23723;DHT22;12042;52.136;5.584;2023-02-26T15:40:33;7.10;99.90
23723;DHT22;12042;52.136;5.584;2023-02-26T15:43:00;7.10;99.90
23723;DHT22;12042;52.136;5.584;2023-02-26T15:45:45;7.10;99.90
23723;DHT22;12042;52.136;5.584;2023-02-26T15:48:28;7.00;99.90
23723;DHT22;12042;52.136;5.584;2023-02-26T15:51:00;7.00;99.90
23723;DHT22;12042;52.136;5.584;2023-02-26T15:53:46;7.00;99.90
23723;DHT22;12042;52.136;5.584;2023-02-26T15:56:19;7.00;99.90
23723;DHT22;12042;52.136;5.584;2023-02-26T15:58:57;6.90;99.90
23723;DHT22;12042;52.136;5.584;2023-02-26T16:01:25;6.80;99.90
23723;DHT22;12042;52.136;5.584;2023-02-26T16:03:55;6.80;99.90
23723;DHT22;12042;52.136;5.584;2023-02-26T16:06:32;6.80;99.90
23723;DHT22;12042;52.136;5.584;2023-02-26T16:08:59;6.90;99.90
23723;DHT22;12042;52.136;5.584;2023-02-26T16:11:31;6.90;99.90
23723;DHT22;12042;52.136;5.584;2023-02-26T16:13:58;7.00;99.90
23723;DHT22;12042;52.136;5.584;2023-02-26T16:16:26;6.90;99.90
23723;DHT22;12042;52.136;5.584;2023-02-26T16:18:54;6.90;99.90
23723;DHT22;12042;52.136;5.584;2023-02-26T16:21:28;7.00;99.90
23723;DHT22;12042;52.136;5.584;2023-02-26T16:23:56;6.90;99.90
23723;DHT22;12042;52.136;5.584;2023-02-26T16:26:40;6.80;99.90
23723;DHT22;12042;52.136;5.584;2023-02-26T16:29:33;6.70;99.90
23723;DHT22;12042;52.136;5.584;2023-02-26T16:32:03;6.60;99.90
23723;DHT22;12042;52.136;5.584;2023-02-26T16:39:43;6.40;99.90
23723;DHT22;12042;52.136;5.584;2023-02-26T16:42:15;6.40;99.90
23723;DHT22;12042;52.136;5.584;2023-02-26T16:47:46;6.40;99.90
23723;DHT22;12042;52.136;5.584;2023-02-26T16:50:34;6.40;99.90
23723;DHT22;12042;52.136;5.584;2023-02-26T16:53:05;6.30;99.90
23723;DHT22;12042;52.136;5.584;2023-02-26T16:55:33;6.20;99.90
23723;DHT22;12042;52.136;5.584;2023-02-26T16:58:01;6.00;99.90
23723;DHT22;12042;52.136;5.584;2023-02-26T17:00:30;5.90;99.90
23723;DHT22;12042;52.136;5.584;2023-02-26T17:03:14;5.90;99.90
23723;DHT22;12042;52.136;5.584;2023-02-26T17:05:57;5.70;99.90
23723;DHT22;12042;52.136;5.584;2023-02-26T17:08:32;5.70;99.90
23723;DHT22;12042;52.136;5.584;2023-02-26T17:11:05;5.70;99.90
23723;DHT22;12042;52.136;5.584;2023-02-26T17:13:33;5.70;99.90
23723;DHT22;12042;52.136;5.584;2023-02-26T17:16:05;5.70;99.90
23723;DHT22;12042;52.136;5.584;2023-02-26T17:18:32;5.60;99.90
23723;DHT22;12042;52.136;5.584;2023-02-26T17:20:59;5.50;99.90
23723;DHT22;12042;52.136;5.584;2023-02-26T17:23:30;5.50;99.90
23723;DHT22;12042;52.136;5.584;2023-02-26T17:25:57;5.40;99.90
23723;DHT22;12042;52.136;5.584;2023-02-26T17:28:35;5.40;99.90
23723;DHT22;12042;52.136;5.584;2023-02-26T17:31:02;5.30;99.90
23723;DHT22;12042;52.136;5.584;2023-02-26T17:33:28;5.30;99.90
23723;DHT22;12042;52.136;5.584;2023-02-26T17:35:59;5.30;99.90
23723;DHT22;12042;52.136;5.584;2023-02-26T17:38:24;5.20;99.90
23723;DHT22;12042;52.136;5.584;2023-02-26T17:40:50;5.10;99.90
23723;DHT22;12042;52.136;5.584;2023-02-26T17:43:22;5.10;99.90
23723;DHT22;12042;52.136;5.584;2023-02-26T17:45:48;5.00;99.90
23723;DHT22;12042;52.136;5.584;2023-02-26T17:48:15;5.00;99.90
23723;DHT22;12042;52.136;5.584;2023-02-26T17:50:54;5.00;99.90
23723;DHT22;12042;52.136;5.584;2023-02-26T17:53:22;5.00;99.90
23723;DHT22;12042;52.136;5.584;2023-02-26T17:55:49;5.00;99.90
23723;DHT22;12042;52.136;5.584;2023-02-26T17:58:20;5.00;99.90
23723;DHT22;12042;52.136;5.584;2023-02-26T18:00:46;4.90;99.90
23723;DHT22;12042;52.136;5.584;2023-02-26T18:03:14;4.90;99.90
23723;DHT22;12042;52.136;5.584;2023-02-26T18:05:40;4.80;99.90
23723;DHT22;12042;52.136;5.584;2023-02-26T18:08:24;4.70;99.90
23723;DHT22;12042;52.136;5.584;2023-02-26T18:10:50;4.70;99.90
23723;DHT22;12042;52.136;5.584;2023-02-26T18:13:17;4.70;99.90
23723;DHT22;12042;52.136;5.584;2023-02-26T18:15:43;4.60;99.90
23723;DHT22;12042;52.136;5.584;2023-02-26T18:18:10;4.60;99.90
23723;DHT22;12042;52.136;5.584;2023-02-26T18:20:37;4.60;99.90
23723;DHT22;12042;52.136;5.584;2023-02-26T18:23:03;4.50;99.90
23723;DHT22;12042;52.136;5.584;2023-02-26T18:25:31;4.50;99.90
23723;DHT22;12042;52.136;5.584;2023-02-26T18:27:57;4.50;99.90
23723;DHT22;12042;52.136;5.584;2023-02-26T18:30:29;4.40;99.90
23723;DHT22;12042;52.136;5.584;2023-02-26T18:32:54;4.30;99.90
23723;DHT22;12042;52.136;5.584;2023-02-26T18:35:21;4.30;99.90
23723;DHT22;12042;52.136;5.584;2023-02-26T18:37:47;4.30;99.90
23723;DHT22;12042;52.136;5.584;2023-02-26T18:40:17;4.30;99.90
23723;DHT22;12042;52.136;5.584;2023-02-26T18:42:43;4.20;99.90
23723;DHT22;12042;52.136;5.584;2023-02-26T18:45:10;4.20;99.90
23723;DHT22;12042;52.136;5.584;2023-02-26T18:47:37;4.10;99.90
23723;DHT22;12042;52.136;5.584;2023-02-26T18:50:03;4.10;99.90
23723;DHT22;12042;52.136;5.584;2023-02-26T18:52:28;4.00;99.90
23723;DHT22;12042;52.136;5.584;2023-02-26T18:54:54;4.10;99.90
23723;DHT22;12042;52.136;5.584;2023-02-26T18:57:20;4.10;99.90
23723;DHT22;12042;52.136;5.584;2023-02-26T18:59:45;4.10;99.90
23723;DHT22;12042;52.136;5.584;2023-02-26T19:02:11;4.10;99.90
23723;DHT22;12042;52.136;5.584;2023-02-26T19:04:39;4.10;99.90
23723;DHT22;12042;52.136;5.584;2023-02-26T19:07:05;4.00;99.90
23723;DHT22;12042;52.136;5.584;2023-02-26T19:09:31;4.00;99.90
23723;DHT22;12042;52.136;5.584;2023-02-26T19:11:57;4.10;99.90
23723;DHT22;12042;52.136;5.584;2023-02-26T19:14:23;4.10;99.90
23723;DHT22;12042;52.136;5.584;2023-02-26T19:16:49;4.10;99.90
23723;DHT22;12042;52.136;5.584;2023-02-26T19:19:15;4.10;99.90
23723;DHT22;12042;52.136;5.584;2023-02-26T19:21:40;4.10;99.90
23723;DHT22;12042;52.136;5.584;2023-02-26T19:24:08;4.10;99.90
23723;DHT22;12042;52.136;5.584;2023-02-26T19:26:35;4.00;99.90
23723;DHT22;12042;52.136;5.584;2023-02-26T19:29:03;4.00;99.90
23723;DHT22;12042;52.136;5.584;2023-02-26T19:31:28;4.00;99.90
23723;DHT22;12042;52.136;5.584;2023-02-26T19:33:55;3.90;99.90
23723;DHT22;12042;52.136;5.584;2023-02-26T19:36:20;3.90;99.90
23723;DHT22;12042;52.136;5.584;2023-02-26T19:38:47;3.80;99.90
23723;DHT22;12042;52.136;5.584;2023-02-26T19:41:17;3.70;99.90
23723;DHT22;12042;52.136;5.584;2023-02-26T19:43:46;3.80;99.90
23723;DHT22;12042;52.136;5.584;2023-02-26T19:46:13;3.80;99.90
23723;DHT22;12042;52.136;5.584;2023-02-26T19:48:41;3.80;99.90
23723;DHT22;12042;52.136;5.584;2023-02-26T19:51:07;3.80;99.90
23723;DHT22;12042;52.136;5.584;2023-02-26T19:53:33;3.80;99.90
23723;DHT22;12042;52.136;5.584;2023-02-26T19:56:00;3.80;99.90
23723;DHT22;12042;52.136;5.584;2023-02-26T19:58:26;3.80;99.90
23723;DHT22;12042;52.136;5.584;2023-02-26T20:00:56;3.90;99.90
23723;DHT22;12042;52.136;5.584;2023-02-26T20:03:22;3.80;99.90
23723;DHT22;12042;52.136;5.584;2023-02-26T20:05:48;3.80;99.90
23723;DHT22;12042;52.136;5.584;2023-02-26T20:08:14;3.80;99.90
23723;DHT22;12042;52.136;5.584;2023-02-26T20:10:39;3.70;99.90
23723;DHT22;12042;52.136;5.584;2023-02-26T20:13:05;3.70;99.90
23723;DHT22;12042;52.136;5.584;2023-02-26T20:15:31;3.70;99.90
23723;DHT22;12042;52.136;5.584;2023-02-26T20:17:58;3.70;99.90
23723;DHT22;12042;52.136;5.584;2023-02-26T20:20:24;3.60;99.90
23723;DHT22;12042;52.136;5.584;2023-02-26T20:22:49;3.60;99.90
23723;DHT22;12042;52.136;5.584;2023-02-26T20:25:15;3.50;99.90
23723;DHT22;12042;52.136;5.584;2023-02-26T20:27:41;3.50;99.90
23723;DHT22;12042;52.136;5.584;2023-02-26T20:30:07;3.50;99.90
23723;DHT22;12042;52.136;5.584;2023-02-26T20:32:33;3.50;99.90
23723;DHT22;12042;52.136;5.584;2023-02-26T20:34:59;3.40;99.90
23723;DHT22;12042;52.136;5.584;2023-02-26T20:37:24;3.30;99.90
23723;DHT22;12042;52.136;5.584;2023-02-26T20:39:50;3.30;99.90
23723;DHT22;12042;52.136;5.584;2023-02-26T20:42:15;3.20;99.90
23723;DHT22;12042;52.136;5.584;2023-02-26T20:44:41;3.20;99.90
23723;DHT22;12042;52.136;5.584;2023-02-26T20:47:07;3.10;99.90
23723;DHT22;12042;52.136;5.584;2023-02-26T20:49:32;3.10;99.90
23723;DHT22;12042;52.136;5.584;2023-02-26T20:51:59;3.00;99.90
23723;DHT22;12042;52.136;5.584;2023-02-26T20:54:24;3.00;99.90
23723;DHT22;12042;52.136;5.584;2023-02-26T20:56:50;3.00;99.90
23723;DHT22;12042;52.136;5.584;2023-02-26T20:59:17;3.00;99.90
23723;DHT22;12042;52.136;5.584;2023-02-26T21:01:46;3.00;99.90
23723;DHT22;12042;52.136;5.584;2023-02-26T21:04:12;3.10;99.90
23723;DHT22;12042;52.136;5.584;2023-02-26T21:06:38;3.10;99.90
23723;DHT22;12042;52.136;5.584;2023-02-26T21:09:05;3.30;99.90
23723;DHT22;12042;52.136;5.584;2023-02-26T21:11:31;3.30;99.90
23723;DHT22;12042;52.136;5.584;2023-02-26T21:13:59;3.30;99.90
23723;DHT22;12042;52.136;5.584;2023-02-26T21:16:26;3.40;99.90
23723;DHT22;12042;52.136;5.584;2023-02-26T21:18:53;3.40;99.90
23723;DHT22;12042;52.136;5.584;2023-02-26T21:21:19;3.30;99.90
23723;DHT22;12042;52.136;5.584;2023-02-26T21:23:44;3.40;99.90
23723;DHT22;12042;52.136;5.584;2023-02-26T21:26:10;3.50;99.90
23723;DHT22;12042;52.136;5.584;2023-02-26T21:28:35;3.60;99.90
23723;DHT22;12042;52.136;5.584;2023-02-26T21:31:01;3.90;99.90
23723;DHT22;12042;52.136;5.584;2023-02-26T21:33:27;3.90;99.90
23723;DHT22;12042;52.136;5.584;2023-02-26T21:35:52;3.90;99.90
23723;DHT22;12042;52.136;5.584;2023-02-26T21:38:18;3.90;99.90
23723;DHT22;12042;52.136;5.584;2023-02-26T21:40:44;4.00;99.90
23723;DHT22;12042;52.136;5.584;2023-02-26T21:43:10;4.00;99.90
23723;DHT22;12042;52.136;5.584;2023-02-26T21:45:37;4.00;99.90
23723;DHT22;12042;52.136;5.584;2023-02-26T21:48:03;4.10;99.90
23723;DHT22;12042;52.136;5.584;2023-02-26T21:50:30;4.00;99.90
23723;DHT22;12042;52.136;5.584;2023-02-26T21:52:55;4.00;99.90
23723;DHT22;12042;52.136;5.584;2023-02-26T21:55:21;3.90;99.90
23723;DHT22;12042;52.136;5.584;2023-02-26T21:57:47;3.90;99.90
23723;DHT22;12042;52.136;5.584;2023-02-26T22:00:13;3.80;99.90
23723;DHT22;12042;52.136;5.584;2023-02-26T22:02:39;3.70;99.90
23723;DHT22;12042;52.136;5.584;2023-02-26T22:05:04;3.70;99.90
23723;DHT22;12042;52.136;5.584;2023-02-26T22:07:30;3.60;99.90
23723;DHT22;12042;52.136;5.584;2023-02-26T22:09:56;3.40;99.90
23723;DHT22;12042;52.136;5.584;2023-02-26T22:12:21;3.30;99.90
